Ocean Springs, MS (39564)

8:59 PM CST on February 11, 2016 (GMT -0600)
Quail Creek | | Change Station
CLOSE
Current Station
Personal Weather Station
Location: Ocean Springs(St Martin), MS
Elevation: 32 ft
Nearby Weather Stations

Elev 32 ft 30.45 °N, 88.81 °W | Updated 15 seconds ago

Clear
Clear
57.6 °F
Feels Like 57.6 °F
N
2.6
Wind Variable Wind from West
Gusts 3.1 mph

Today
High -- | Low -- °F
--% Chance of Precip.
Yesterday
High -- | Low -- °F
Precip. -- in
Pressure 30.20 in
Visibility 10.0 miles
Clouds Clear
Dew Point 56 °F
Humidity 96%
Rainfall 0.00 in
Snow Depth Not available.
6:39 AM 5:39 PM
Waxing Crescent, 16% visible
METAR KBIX 120258Z AUTO 24010KT 10SM CLR 15/14 A3019 RMK AO2 SLP226 T01470135 52017
Pressure 30.20 in
Visibility 10.0 miles
Clouds Clear
Dew Point 56 °F
Humidity 96%
Rainfall 0.00 in
Snow Depth Not available.
6:39 AM 5:39 PM
Waxing Crescent, 16% visible
METAR KBIX 120258Z AUTO 24010KT 10SM CLR 15/14 A3019 RMK AO2 SLP226 T01470135 52017

10-Day Weather Forecast

Almanac

Astronomy

Feb. 11, 2016 Rise Set
Actual Time
Civil Twilight
Nautical Twilight
Astronomical Twilight
Moon
Length of Visible Light
Length of Day
Tomorrow will be .
, % of the Moon is Illuminated

Today's Extremes

State Highs State Lows

Community

WunderPhotos

Upload Photos

1,892,226 photos uploaded!

WunderBlog® & News

Nearby

Air Quality

  Air Quality AQ Index Pollutant
Not available.

Snow Depth

Station Depth Elevation

Earthquake Activity

City Distance Mag. Time & Date
Minimum magnitude displayed is 2.5.

Coastal Water Temperatures

Place Temperature

Stations

Nearby Weather Stations

Station Location Temp. Windchill Dew Point Humidity Wind Precip. Elev Updated Type
                   

Watches & Warnings

There are currently no watches in effect.